Time,TemperatureF,DewpointF,PressureIn,WindDirection,WindDirectionDegrees,WindSpeedMPH,WindSpeedGustMPH,Humidity,HourlyPrecipIn,Conditions,Clouds,dailyrainin,SolarRadiationWatts/m^2,SoftwareType,DateUTC
2013-08-15 00:02:00,61.5,57.9,30.05,SW,229,2.0,4.0,88,0.00,,,0.00,0.0,meteohub,2013-08-15 07:02:00,
2013-08-15 00:07:00,61.5,57.9,30.05,WSW,246,4.0,9.0,88,0.00,,,0.00,0.0,meteohub,2013-08-15 07:07:00,
2013-08-15 00:12:00,61.5,57.9,30.05,WSW,246,2.0,9.0,88,0.00,,,0.00,0.0,meteohub,2013-08-15 07:12:00,
2013-08-15 00:17:00,61.7,58.1,30.04,WSW,240,0.0,7.0,88,0.00,,,0.00,0.0,meteohub,2013-08-15 07:17:00,
2013-08-15 00:22:00,61.7,58.1,30.04,WSW,250,0.0,7.0,88,0.00,,,0.00,0.0,meteohub,2013-08-15 07:22:00,
2013-08-15 00:27:00,61.5,57.9,30.04,WSW,253,3.0,4.0,88,0.00,,,0.00,0.0,meteohub,2013-08-15 07:27:00,
2013-08-15 00:32:00,61.7,58.1,30.04,West,259,1.0,4.0,88,0.00,,,0.00,0.0,meteohub,2013-08-15 07:32:00,
2013-08-15 00:37:00,61.5,57.9,30.04,WSW,244,5.0,5.0,88,0.00,,,0.00,0.0,meteohub,2013-08-15 07:37:00,
2013-08-15 00:42:00,61.7,58.1,30.04,WSW,246,3.0,6.0,88,0.00,,,0.00,0.0,meteohub,2013-08-15 07:42:00,
2013-08-15 00:47:00,61.9,58.3,30.04,WSW,248,2.0,6.0,88,0.00,,,0.00,0.0,meteohub,2013-08-15 07:47:00,
2013-08-15 00:52:00,61.9,58.3,30.04,West,271,3.0,6.0,88,0.00,,,0.00,0.0,meteohub,2013-08-15 07:52:00,
2013-08-15 00:57:00,61.9,58.3,30.04,West,265,0.0,6.0,88,0.00,,,0.00,0.0,meteohub,2013-08-15 07:57:00,
2013-08-15 01:02:00,61.9,58.3,30.04,West,260,3.0,4.0,88,0.00,,,0.00,0.0,meteohub,2013-08-15 08:02:00,
2013-08-15 01:07:00,61.9,58.3,30.04,WSW,254,3.0,4.0,88,0.00,,,0.00,0.0,meteohub,2013-08-15 08:07:00,
2013-08-15 01:12:00,61.9,58.3,30.04,WSW,242,2.0,6.0,88,0.00,,,0.00,0.0,meteohub,2013-08-15 08:12:00,
2013-08-15 01:17:00,61.9,58.3,30.04,SW,222,0.0,7.0,88,0.00,,,0.00,0.0,meteohub,2013-08-15 08:17:00,
2013-08-15 01:22:00,61.7,58.1,30.04,SW,223,1.0,7.0,88,0.00,,,0.00,0.0,meteohub,2013-08-15 08:22:00,
2013-08-15 01:27:00,61.5,57.9,30.04,WSW,251,4.0,7.0,88,0.00,,,0.00,0.0,meteohub,2013-08-15 08:27:00,
2013-08-15 01:32:00,61.5,58.3,30.04,SW,234,0.0,5.0,89,0.00,,,0.00,0.0,meteohub,2013-08-15 08:32:00,
2013-08-15 01:37:00,61.5,58.3,30.04,West,271,0.0,5.0,89,0.00,,,0.00,0.0,meteohub,2013-08-15 08:37:00,
2013-08-15 01:42:00,61.3,58.1,30.04,WSW,253,3.0,6.0,89,0.00,,,0.00,0.0,meteohub,2013-08-15 08:42:00,
2013-08-15 01:47:00,61.3,58.1,30.04,SW,234,2.0,6.0,89,0.00,,,0.00,0.0,meteohub,2013-08-15 08:47:00,
2013-08-15 01:52:00,61.3,58.1,30.04,WSW,243,3.0,6.0,89,0.00,,,0.00,0.0,meteohub,2013-08-15 08:52:00,
2013-08-15 01:57:00,61.3,58.1,30.04,West,267,5.0,7.0,89,0.00,,,0.00,0.0,meteohub,2013-08-15 08:57:00,
2013-08-15 02:02:00,61.3,58.5,30.04,WSW,258,1.0,11.0,90,0.00,,,0.00,0.0,meteohub,2013-08-15 09:02:00,
2013-08-15 02:07:00,61.3,58.5,30.04,West,266,2.0,11.0,90,0.00,,,0.00,0.0,meteohub,2013-08-15 09:07:00,
2013-08-15 02:12:00,61.3,58.5,30.04,SW,228,0.0,11.0,90,0.00,,,0.00,0.0,meteohub,2013-08-15 09:12:00,
2013-08-15 02:17:00,61.3,58.5,30.04,SSW,208,1.0,7.0,90,0.00,,,0.00,0.0,meteohub,2013-08-15 09:17:00,
2013-08-15 02:22:00,61.2,58.3,30.04,SW,229,0.0,5.0,90,0.00,,,0.00,0.0,meteohub,2013-08-15 09:22:00,
2013-08-15 02:27:00,61.2,58.3,30.04,WSW,244,0.0,5.0,90,0.00,,,0.00,0.0,meteohub,2013-08-15 09:27:00,
2013-08-15 02:32:00,61.2,58.3,30.04,WSW,249,0.0,4.0,90,0.00,,,0.00,0.0,meteohub,2013-08-15 09:32:00,
2013-08-15 02:37:00,61.2,58.3,30.04,WSW,250,0.0,4.0,90,0.00,,,0.00,0.0,meteohub,2013-08-15 09:37:00,
2013-08-15 02:42:00,61.2,58.3,30.04,West,274,2.0,3.0,90,0.00,,,0.00,0.0,meteohub,2013-08-15 09:42:00,
2013-08-15 02:47:00,61.0,58.1,30.04,West,278,4.0,4.0,90,0.00,,,0.00,0.0,meteohub,2013-08-15 09:47:00,
2013-08-15 02:52:00,61.0,58.1,30.04,West,259,2.0,4.0,90,0.00,,,0.00,0.0,meteohub,2013-08-15 09:52:00,
2013-08-15 02:57:00,61.0,58.1,30.04,SW,218,1.0,6.0,90,0.00,,,0.00,0.0,meteohub,2013-08-15 09:57:00,
2013-08-15 03:02:00,61.0,58.1,30.04,WSW,238,1.0,6.0,90,0.00,,,0.00,0.0,meteohub,2013-08-15 10:02:00,
2013-08-15 03:07:00,61.0,58.1,30.04,WSW,242,2.0,6.0,90,0.00,,,0.00,0.0,meteohub,2013-08-15 10:07:00,
2013-08-15 03:12:00,61.0,58.1,30.04,West,259,3.0,5.0,90,0.00,,,0.00,0.0,meteohub,2013-08-15 10:12:00,
2013-08-15 03:17:00,61.0,58.1,30.04,WSW,254,3.0,8.0,90,0.00,,,0.00,0.0,meteohub,2013-08-15 10:17:00,
2013-08-15 03:22:00,61.0,58.3,30.04,West,278,6.0,8.0,91,0.00,,,0.00,0.0,meteohub,2013-08-15 10:22:00,
2013-08-15 03:27:00,61.0,58.3,30.04,WSW,248,4.0,9.0,91,0.00,,,0.00,0.0,meteohub,2013-08-15 10:27:00,
2013-08-15 03:32:00,61.0,58.3,30.04,SW,236,5.0,9.0,91,0.00,,,0.00,0.0,meteohub,2013-08-15 10:32:00,
2013-08-15 03:37:00,61.0,58.3,30.04,SW,225,4.0,9.0,91,0.00,,,0.00,0.0,meteohub,2013-08-15 10:37:00,
2013-08-15 03:42:00,61.0,58.3,30.04,WSW,238,4.0,6.0,91,0.00,,,0.00,0.0,meteohub,2013-08-15 10:42:00,
2013-08-15 03:47:00,61.0,58.3,30.04,WNW,289,4.0,6.0,91,0.00,,,0.00,0.0,meteohub,2013-08-15 10:47:00,
2013-08-15 03:52:00,61.0,58.3,30.04,WSW,251,3.0,6.0,91,0.00,,,0.00,0.0,meteohub,2013-08-15 10:52:00,
2013-08-15 03:57:00,61.0,58.3,30.04,West,263,3.0,6.0,91,0.00,,,0.00,0.0,meteohub,2013-08-15 10:57:00,
2013-08-15 04:02:00,60.6,57.9,30.04,West,261,0.0,6.0,91,0.00,,,0.00,0.0,meteohub,2013-08-15 11:02:00,
2013-08-15 04:07:00,60.6,57.9,30.04,West,261,0.0,4.0,91,0.00,,,0.00,0.0,meteohub,2013-08-15 11:07:00,
2013-08-15 04:12:00,60.6,57.9,30.03,West,263,0.0,3.0,91,0.00,,,0.00,0.0,meteohub,2013-08-15 11:12:00,
2013-08-15 04:13:00,60.6,57.9,30.03,West,263,0.0,3.0,91,0.00,,,0.00,0.0,meteohub,2013-08-15 11:13:00,
2013-08-15 04:18:00,60.6,57.9,30.03,SW,216,1.0,4.0,91,0.00,,,0.00,0.0,meteohub,2013-08-15 11:18:00,
2013-08-15 04:23:00,60.6,57.9,30.03,West,275,5.0,5.0,91,0.00,,,0.00,0.0,meteohub,2013-08-15 11:23:00,
2013-08-15 04:28:00,60.6,57.9,30.03,WSW,245,1.0,5.0,91,0.00,,,0.00,0.0,meteohub,2013-08-15 11:28:00,
2013-08-15 04:33:00,60.6,57.9,30.03,WSW,255,2.0,5.0,91,0.00,,,0.00,0.0,meteohub,2013-08-15 11:33:00,
2013-08-15 04:38:00,60.6,58.3,30.03,WSW,250,1.0,5.0,92,0.00,,,0.00,0.0,meteohub,2013-08-15 11:38:00,
2013-08-15 04:43:00,60.6,58.3,30.03,WSW,247,2.0,5.0,92,0.00,,,0.00,0.0,meteohub,2013-08-15 11:43:00,
2013-08-15 04:48:00,60.6,58.3,30.03,West,259,0.0,5.0,92,0.00,,,0.00,0.0,meteohub,2013-08-15 11:48:00,
2013-08-15 04:53:00,60.6,58.3,30.03,WSW,254,5.0,5.0,92,0.00,,,0.00,0.0,meteohub,2013-08-15 11:53:00,
2013-08-15 04:58:00,60.6,58.3,30.03,SW,235,1.0,6.0,92,0.00,,,0.00,0.0,meteohub,2013-08-15 11:58:00,
2013-08-15 05:03:00,60.6,58.3,30.03,WSW,252,2.0,6.0,92,0.00,,,0.00,0.0,meteohub,2013-08-15 12:03:00,
2013-08-15 05:08:00,60.8,58.5,30.04,WSW,246,2.0,6.0,92,0.00,,,0.00,0.0,meteohub,2013-08-15 12:08:00,
2013-08-15 05:13:00,60.8,58.5,30.03,WSW,248,0.0,6.0,92,0.00,,,0.00,0.0,meteohub,2013-08-15 12:13:00,
2013-08-15 05:18:00,60.8,58.5,30.03,WSW,238,2.0,4.0,92,0.00,,,0.00,0.0,meteohub,2013-08-15 12:18:00,
2013-08-15 05:23:00,60.8,58.5,30.03,SW,236,0.0,5.0,92,0.00,,,0.00,0.0,meteohub,2013-08-15 12:23:00,
2013-08-15 05:28:00,60.8,58.5,30.04,WSW,243,1.0,5.0,92,0.00,,,0.00,0.0,meteohub,2013-08-15 12:28:00,
2013-08-15 05:34:00,60.8,58.5,30.04,WSW,243,0.0,4.0,92,0.00,,,0.00,0.0,meteohub,2013-08-15 12:34:00,
2013-08-15 05:39:00,60.6,58.3,30.04,WSW,241,0.0,4.0,92,0.00,,,0.00,0.0,meteohub,2013-08-15 12:39:00,
2013-08-15 05:44:00,60.6,58.3,30.04,WSW,241,0.0,3.0,92,0.00,,,0.00,0.0,meteohub,2013-08-15 12:44:00,
2013-08-15 05:49:00,60.4,58.1,30.04,WSW,240,0.0,2.0,92,0.00,,,0.00,0.0,meteohub,2013-08-15 12:49:00,
2013-08-15 05:54:00,60.4,58.1,30.04,West,266,3.0,3.0,92,0.00,,,0.00,0.0,meteohub,2013-08-15 12:54:00,
2013-08-15 05:59:00,60.4,58.1,30.04,West,265,0.0,3.0,92,0.00,,,0.00,0.0,meteohub,2013-08-15 12:59:00,
2013-08-15 06:04:00,60.3,57.9,30.04,West,265,1.0,4.0,92,0.00,,,0.00,0.0,meteohub,2013-08-15 13:04:00,
2013-08-15 06:09:00,60.3,57.9,30.04,SW,215,1.0,4.0,92,0.00,,,0.00,0.0,meteohub,2013-08-15 13:09:00,
2013-08-15 06:14:00,60.3,57.9,30.04,WSW,238,2.0,4.0,92,0.00,,,0.00,0.0,meteohub,2013-08-15 13:14:00,
2013-08-15 06:19:00,60.3,57.9,30.05,SSW,208,1.0,5.0,92,0.00,,,0.00,0.0,meteohub,2013-08-15 13:19:00,
2013-08-15 06:24:00,60.3,57.9,30.05,SSE,159,0.0,5.0,92,0.00,,,0.00,0.0,meteohub,2013-08-15 13:24:00,
2013-08-15 06:29:00,60.3,57.9,30.05,SW,232,0.0,5.0,92,0.00,,,0.00,0.0,meteohub,2013-08-15 13:29:00,
2013-08-15 06:34:00,60.3,58.3,30.05,SW,226,0.0,5.0,93,0.00,,,0.00,5.0,meteohub,2013-08-15 13:34:00,
2013-08-15 06:39:00,60.3,58.3,30.05,WSW,239,2.0,5.0,93,0.00,,,0.00,9.0,meteohub,2013-08-15 13:39:00,
2013-08-15 06:44:00,60.4,58.5,30.05,West,264,2.0,5.0,93,0.00,,,0.00,12.0,meteohub,2013-08-15 13:44:00,
2013-08-15 06:49:00,60.4,58.5,30.05,WSW,257,2.0,3.0,93,0.00,,,0.00,14.0,meteohub,2013-08-15 13:49:00,
2013-08-15 06:54:00,60.6,58.6,30.05,WSW,243,1.0,8.0,93,0.00,,,0.00,16.0,meteohub,2013-08-15 13:54:00,
2013-08-15 06:59:00,60.6,58.6,30.06,SW,227,2.0,8.0,93,0.00,,,0.00,19.0,meteohub,2013-08-15 13:59:00,
2013-08-15 07:04:00,60.6,58.6,30.06,WSW,251,2.0,8.0,93,0.00,,,0.00,18.0,meteohub,2013-08-15 14:04:00,
2013-08-15 07:10:00,60.8,58.8,30.06,WSW,246,2.0,5.0,93,0.00,,,0.00,16.0,meteohub,2013-08-15 14:10:00,
2013-08-15 07:15:00,61.0,59.0,30.06,WSW,244,4.0,5.0,93,0.00,,,0.00,19.0,meteohub,2013-08-15 14:15:00,
2013-08-15 07:20:00,61.0,59.0,30.06,West,270,4.0,5.0,93,0.00,,,0.00,19.0,meteohub,2013-08-15 14:20:00,
2013-08-15 07:25:00,61.0,59.0,30.06,SW,232,2.0,5.0,93,0.00,,,0.00,28.0,meteohub,2013-08-15 14:25:00,
2013-08-15 07:30:00,61.2,59.2,30.06,WSW,242,0.0,7.0,93,0.00,,,0.00,19.0,meteohub,2013-08-15 14:30:00,
2013-08-15 07:35:00,61.2,59.2,30.06,SW,221,1.0,7.0,93,0.00,,,0.00,21.0,meteohub,2013-08-15 14:35:00,
2013-08-15 07:40:00,61.2,59.2,30.06,WSW,257,7.0,7.0,93,0.00,,,0.00,23.0,meteohub,2013-08-15 14:40:00,
2013-08-15 07:45:00,61.2,59.2,30.06,West,261,0.0,7.0,93,0.00,,,0.00,23.0,meteohub,2013-08-15 14:45:00,
2013-08-15 07:51:00,61.3,59.4,30.06,SW,234,1.0,7.0,93,0.00,,,0.00,18.0,meteohub,2013-08-15 14:51:00,
2013-08-15 07:56:00,61.3,59.0,30.07,WSW,241,5.0,7.0,92,0.00,,,0.00,19.0,meteohub,2013-08-15 14:56:00,
2013-08-15 08:01:00,61.5,59.2,30.07,West,265,3.0,7.0,92,0.00,,,0.00,18.0,meteohub,2013-08-15 15:01:00,
2013-08-15 08:07:00,61.7,59.4,30.07,NW,323,4.0,8.0,92,0.00,,,0.00,18.0,meteohub,2013-08-15 15:07:00,
2013-08-15 08:12:00,61.9,59.5,30.07,SW,215,0.0,8.0,92,0.00,,,0.00,18.0,meteohub,2013-08-15 15:12:00,
2013-08-15 08:18:00,62.1,59.4,30.07,WSW,251,1.0,8.0,91,0.00,,,0.00,19.0,meteohub,2013-08-15 15:18:00,
2013-08-15 08:23:00,62.2,59.5,30.07,WSW,249,1.0,7.0,91,0.00,,,0.00,19.0,meteohub,2013-08-15 15:23:00,
2013-08-15 08:28:00,62.4,59.4,30.07,SW,228,4.0,6.0,90,0.00,,,0.00,23.0,meteohub,2013-08-15 15:28:00,
2013-08-15 08:33:00,62.4,59.4,30.07,SW,234,4.0,6.0,90,0.00,,,0.00,19.0,meteohub,2013-08-15 15:33:00,
2013-08-15 08:38:00,62.8,59.5,30.07,SW,221,3.0,6.0,89,0.00,,,0.00,21.0,meteohub,2013-08-15 15:38:00,
2013-08-15 08:43:00,63.0,59.7,30.07,WSW,256,5.0,7.0,89,0.00,,,0.00,21.0,meteohub,2013-08-15 15:43:00,
2013-08-15 08:48:00,63.3,59.7,30.07,West,275,4.0,7.0,88,0.00,,,0.00,21.0,meteohub,2013-08-15 15:48:00,
2013-08-15 08:54:00,63.7,60.1,30.08,WSW,244,1.0,7.0,88,0.00,,,0.00,21.0,meteohub,2013-08-15 15:54:00,
2013-08-15 08:59:00,63.9,59.9,30.08,West,263,3.0,7.0,87,0.00,,,0.00,21.0,meteohub,2013-08-15 15:59:00,
2013-08-15 09:04:00,64.2,59.9,30.08,WSW,242,2.0,8.0,86,0.00,,,0.00,21.0,meteohub,2013-08-15 16:04:00,
2013-08-15 09:09:00,64.6,59.9,30.08,West,271,5.0,8.0,85,0.00,,,0.00,23.0,meteohub,2013-08-15 16:09:00,
2013-08-15 09:15:00,64.8,59.9,30.08,WNW,288,3.0,8.0,84,0.00,,,0.00,23.0,meteohub,2013-08-15 16:15:00,
2013-08-15 09:20:00,65.1,59.9,30.08,West,263,3.0,7.0,83,0.00,,,0.00,23.0,meteohub,2013-08-15 16:20:00,
2013-08-15 09:25:00,65.5,59.9,30.08,WSW,258,6.0,8.0,82,0.00,,,0.00,23.0,meteohub,2013-08-15 16:25:00,
2013-08-15 09:30:00,65.8,60.3,30.08,West,275,6.0,8.0,82,0.00,,,0.00,25.0,meteohub,2013-08-15 16:30:00,
2013-08-15 09:36:00,66.2,60.6,30.08,WSW,238,3.0,8.0,82,0.00,,,0.00,25.0,meteohub,2013-08-15 16:36:00,
2013-08-15 09:41:00,66.4,60.4,30.07,WSW,248,2.0,8.0,81,0.00,,,0.00,25.0,meteohub,2013-08-15 16:41:00,
2013-08-15 09:46:00,66.7,60.4,30.07,WSW,240,2.0,7.0,80,0.00,,,0.00,26.0,meteohub,2013-08-15 16:46:00,
2013-08-15 09:51:00,66.9,60.3,30.07,WSW,238,3.0,7.0,79,0.00,,,0.00,26.0,meteohub,2013-08-15 16:51:00,
2013-08-15 09:56:00,67.3,60.6,30.07,West,263,6.0,7.0,79,0.00,,,0.00,26.0,meteohub,2013-08-15 16:56:00,
2013-08-15 10:01:00,67.6,60.3,30.08,SW,229,4.0,7.0,77,0.00,,,0.00,28.0,meteohub,2013-08-15 17:01:00,
2013-08-15 10:06:00,68.2,60.6,30.08,SW,230,6.0,10.0,77,0.00,,,0.00,28.0,meteohub,2013-08-15 17:06:00,
2013-08-15 10:11:00,68.7,60.4,30.08,SW,228,5.0,10.0,75,0.00,,,0.00,30.0,meteohub,2013-08-15 17:11:00,
2013-08-15 10:16:00,69.1,60.4,30.08,West,277,4.0,10.0,74,0.00,,,0.00,42.0,meteohub,2013-08-15 17:16:00,
2013-08-15 10:21:00,69.4,60.4,30.08,WSW,252,5.0,7.0,73,0.00,,,0.00,32.0,meteohub,2013-08-15 17:21:00,
2013-08-15 10:26:00,70.2,60.3,30.08,NW,318,2.0,7.0,71,0.00,,,0.00,105.0,meteohub,2013-08-15 17:26:00,
2013-08-15 10:31:00,70.3,60.1,30.08,WNW,288,3.0,7.0,70,0.00,,,0.00,35.0,meteohub,2013-08-15 17:31:00,
2013-08-15 10:36:00,70.9,60.6,30.08,West,274,5.0,7.0,70,0.00,,,0.00,35.0,meteohub,2013-08-15 17:36:00,
2013-08-15 10:42:00,71.2,61.0,30.08,WNW,302,1.0,7.0,70,0.00,,,0.00,204.0,meteohub,2013-08-15 17:42:00,
2013-08-15 10:43:00,71.4,60.8,30.08,North,350,1.0,7.0,69,0.00,,,0.00,130.0,meteohub,2013-08-15 17:43:00,
2013-08-15 10:52:00,72.7,61.2,30.08,WSW,256,5.0,8.0,67,0.00,,,0.00,39.0,meteohub,2013-08-15 17:52:00,
2013-08-15 10:59:00,73.4,61.3,30.08,SW,225,2.0,8.0,66,0.00,,,0.00,40.0,meteohub,2013-08-15 17:59:00,
2013-08-15 11:04:00,74.1,61.5,30.08,WSW,248,4.0,8.0,65,0.00,,,0.00,40.0,meteohub,2013-08-15 18:04:00,
2013-08-15 11:09:00,74.5,61.5,30.07,SW,232,3.0,8.0,64,0.00,,,0.00,42.0,meteohub,2013-08-15 18:09:00,
2013-08-15 11:15:00,74.8,61.3,30.07,SW,230,6.0,11.0,63,0.00,,,0.00,42.0,meteohub,2013-08-15 18:15:00,
2013-08-15 11:20:00,75.6,61.7,30.07,WSW,240,5.0,11.0,62,0.00,,,0.00,44.0,meteohub,2013-08-15 18:20:00,
2013-08-15 11:26:00,75.6,61.7,30.07,West,274,5.0,10.0,62,0.00,,,0.00,44.0,meteohub,2013-08-15 18:26:00,
2013-08-15 11:32:00,75.7,61.9,30.07,West,265,4.0,10.0,62,0.00,,,0.00,46.0,meteohub,2013-08-15 18:32:00,
2013-08-15 11:37:00,76.5,62.1,30.07,WSW,248,4.0,10.0,61,0.00,,,0.00,46.0,meteohub,2013-08-15 18:37:00,
2013-08-15 11:42:00,77.2,62.6,30.07,WNW,288,6.0,10.0,61,0.00,,,0.00,47.0,meteohub,2013-08-15 18:42:00,
2013-08-15 11:47:00,78.1,62.6,30.07,WSW,239,5.0,10.0,59,0.00,,,0.00,47.0,meteohub,2013-08-15 18:47:00,
2013-08-15 11:52:00,78.1,62.1,30.07,West,267,3.0,8.0,58,0.00,,,0.00,167.0,meteohub,2013-08-15 18:52:00,
2013-08-15 11:58:00,78.8,62.8,30.07,West,261,5.0,8.0,58,0.00,,,0.00,694.0,meteohub,2013-08-15 18:58:00,
2013-08-15 12:03:00,80.1,62.4,30.07,SW,229,7.0,8.0,55,0.00,,,0.00,835.0,meteohub,2013-08-15 19:03:00,
2013-08-15 12:08:00,80.2,62.1,30.07,West,261,5.0,8.0,54,0.00,,,0.00,840.0,meteohub,2013-08-15 19:08:00,
2013-08-15 12:14:00,80.1,61.9,30.07,SW,233,6.0,9.0,54,0.00,,,0.00,849.0,meteohub,2013-08-15 19:14:00,
2013-08-15 12:19:00,80.6,62.4,30.06,West,259,0.0,9.0,54,0.00,,,0.00,856.0,meteohub,2013-08-15 19:19:00,
2013-08-15 12:24:00,81.1,62.4,30.06,WSW,238,5.0,8.0,53,0.00,,,0.00,860.0,meteohub,2013-08-15 19:24:00,
2013-08-15 12:30:00,81.3,62.1,30.06,West,270,2.0,9.0,52,0.00,,,0.00,863.0,meteohub,2013-08-15 19:30:00,
2013-08-15 12:35:00,82.2,62.8,30.06,West,267,5.0,9.0,52,0.00,,,0.00,868.0,meteohub,2013-08-15 19:35:00,
2013-08-15 12:40:00,82.6,62.6,30.06,WNW,302,4.0,8.0,51,0.00,,,0.00,872.0,meteohub,2013-08-15 19:40:00,
2013-08-15 12:45:00,82.9,62.4,30.06,West,259,6.0,10.0,50,0.00,,,0.00,875.0,meteohub,2013-08-15 19:45:00,
2013-08-15 12:50:00,83.5,63.0,30.06,WSW,258,8.0,10.0,50,0.00,,,0.00,877.0,meteohub,2013-08-15 19:50:00,
2013-08-15 12:56:00,83.8,62.6,30.06,WSW,239,2.0,10.0,49,0.00,,,0.00,879.0,meteohub,2013-08-15 19:56:00,
2013-08-15 13:01:00,84.6,63.3,30.06,West,266,5.0,10.0,49,0.00,,,0.00,884.0,meteohub,2013-08-15 20:01:00,
2013-08-15 13:06:00,84.9,62.4,30.06,WSW,253,8.0,10.0,47,0.00,,,0.00,886.0,meteohub,2013-08-15 20:06:00,
2013-08-15 13:11:00,84.7,62.2,30.06,WSW,240,9.0,10.0,47,0.00,,,0.00,884.0,meteohub,2013-08-15 20:11:00,
2013-08-15 13:16:00,84.9,62.4,30.06,SW,230,9.0,13.0,47,0.00,,,0.00,888.0,meteohub,2013-08-15 20:16:00,
2013-08-15 13:21:00,85.1,62.1,30.06,WSW,254,2.0,13.0,46,0.00,,,0.00,888.0,meteohub,2013-08-15 20:21:00,
2013-08-15 13:26:00,84.9,61.9,30.06,WSW,246,6.0,11.0,46,0.00,,,0.00,886.0,meteohub,2013-08-15 20:26:00,
2013-08-15 13:31:00,85.1,62.1,30.06,WSW,245,5.0,11.0,46,0.00,,,0.00,886.0,meteohub,2013-08-15 20:31:00,
2013-08-15 13:36:00,85.6,62.4,30.06,WSW,241,2.0,11.0,46,0.00,,,0.00,884.0,meteohub,2013-08-15 20:36:00,
2013-08-15 13:42:00,84.9,61.9,30.06,WNW,290,4.0,12.0,46,0.00,,,0.00,882.0,meteohub,2013-08-15 20:42:00,
2013-08-15 13:47:00,84.9,61.9,30.06,West,266,5.0,12.0,46,0.00,,,0.00,881.0,meteohub,2013-08-15 20:47:00,
2013-08-15 13:52:00,85.6,62.4,30.06,WNW,282,3.0,12.0,46,0.00,,,0.00,881.0,meteohub,2013-08-15 20:52:00,
2013-08-15 13:57:00,86.0,62.2,30.06,WSW,240,6.0,11.0,45,0.00,,,0.00,877.0,meteohub,2013-08-15 20:57:00,
2013-08-15 14:07:00,86.2,63.0,30.06,WSW,245,8.0,12.0,46,0.00,,,0.00,872.0,meteohub,2013-08-15 21:07:00,
2013-08-15 14:12:00,86.2,63.0,30.05,WSW,252,6.0,12.0,46,0.00,,,0.00,870.0,meteohub,2013-08-15 21:12:00,
2013-08-15 14:17:00,86.0,63.5,30.05,WSW,244,7.0,12.0,47,0.00,,,0.00,865.0,meteohub,2013-08-15 21:17:00,
2013-08-15 14:22:00,86.2,63.0,30.05,SW,235,7.0,12.0,46,0.00,,,0.00,863.0,meteohub,2013-08-15 21:22:00,
2013-08-15 14:27:00,86.2,63.0,30.05,WSW,239,5.0,14.0,46,0.00,,,0.00,856.0,meteohub,2013-08-15 21:27:00,
2013-08-15 14:33:00,87.3,63.3,30.05,WSW,251,5.0,14.0,45,0.00,,,0.00,851.0,meteohub,2013-08-15 21:33:00,
2013-08-15 14:38:00,87.1,63.1,30.05,WSW,240,5.0,13.0,45,0.00,,,0.00,844.0,meteohub,2013-08-15 21:38:00,
2013-08-15 14:43:00,86.5,63.3,30.05,SW,223,5.0,13.0,46,0.00,,,0.00,838.0,meteohub,2013-08-15 21:43:00,
2013-08-15 14:49:00,86.7,63.5,30.05,WSW,242,5.0,12.0,46,0.00,,,0.00,831.0,meteohub,2013-08-15 21:49:00,
2013-08-15 14:54:00,86.9,63.7,30.05,WSW,254,7.0,12.0,46,0.00,,,0.00,826.0,meteohub,2013-08-15 21:54:00,
2013-08-15 14:59:00,87.3,63.3,30.05,West,267,4.0,13.0,45,0.00,,,0.00,821.0,meteohub,2013-08-15 21:59:00,
2013-08-15 15:04:00,87.3,63.3,30.04,WSW,238,5.0,13.0,45,0.00,,,0.00,812.0,meteohub,2013-08-15 22:04:00,
2013-08-15 15:10:00,86.7,63.5,30.04,West,269,7.0,13.0,46,0.00,,,0.00,802.0,meteohub,2013-08-15 22:10:00,
2013-08-15 15:15:00,87.3,64.0,30.05,WSW,240,5.0,11.0,46,0.00,,,0.00,795.0,meteohub,2013-08-15 22:15:00,
2013-08-15 15:20:00,87.4,63.5,30.05,WSW,240,7.0,12.0,45,0.00,,,0.00,786.0,meteohub,2013-08-15 22:20:00,
2013-08-15 15:25:00,87.3,64.0,30.04,West,264,3.0,12.0,46,0.00,,,0.00,779.0,meteohub,2013-08-15 22:25:00,
2013-08-15 15:30:00,87.4,63.5,30.04,West,269,5.0,12.0,45,0.00,,,0.00,765.0,meteohub,2013-08-15 22:30:00,
2013-08-15 15:35:00,87.6,64.2,30.04,West,272,9.0,12.0,46,0.00,,,0.00,761.0,meteohub,2013-08-15 22:35:00,
2013-08-15 15:40:00,87.3,63.3,30.04,SW,236,3.0,12.0,45,0.00,,,0.00,747.0,meteohub,2013-08-15 22:40:00,
2013-08-15 15:46:00,87.1,63.9,30.04,WSW,256,10.0,10.0,46,0.00,,,0.00,740.0,meteohub,2013-08-15 22:46:00,
2013-08-15 15:51:00,86.9,63.7,30.04,WSW,255,3.0,12.0,46,0.00,,,0.00,729.0,meteohub,2013-08-15 22:51:00,
2013-08-15 15:56:00,86.7,63.5,30.04,WSW,240,8.0,12.0,46,0.00,,,0.00,719.0,meteohub,2013-08-15 22:56:00,
2013-08-15 16:01:00,86.2,63.0,30.04,WSW,254,8.0,12.0,46,0.00,,,0.00,708.0,meteohub,2013-08-15 23:01:00,
2013-08-15 16:06:00,86.2,63.5,30.04,WSW,246,9.0,12.0,47,0.00,,,0.00,696.0,meteohub,2013-08-15 23:06:00,
2013-08-15 16:11:00,86.0,63.5,30.04,West,273,7.0,11.0,47,0.00,,,0.00,682.0,meteohub,2013-08-15 23:11:00,
2013-08-15 16:16:00,86.2,63.5,30.04,SW,224,6.0,10.0,47,0.00,,,0.00,670.0,meteohub,2013-08-15 23:16:00,
2013-08-15 16:22:00,86.2,63.0,30.04,SW,227,6.0,12.0,46,0.00,,,0.00,659.0,meteohub,2013-08-15 23:22:00,
2013-08-15 16:27:00,85.8,63.9,30.04,West,270,5.0,12.0,48,0.00,,,0.00,647.0,meteohub,2013-08-15 23:27:00,
2013-08-15 16:32:00,86.2,63.5,30.04,WSW,240,5.0,12.0,47,0.00,,,0.00,635.0,meteohub,2013-08-15 23:32:00,
2013-08-15 16:37:00,85.8,63.3,30.04,WSW,257,9.0,12.0,47,0.00,,,0.00,619.0,meteohub,2013-08-15 23:37:00,
2013-08-15 16:42:00,86.2,63.5,30.04,WSW,254,9.0,11.0,47,0.00,,,0.00,605.0,meteohub,2013-08-15 23:42:00,
2013-08-15 16:47:00,85.8,63.3,30.04,WSW,250,6.0,11.0,47,0.00,,,0.00,592.0,meteohub,2013-08-15 23:47:00,
2013-08-15 16:52:00,85.6,63.7,30.04,SW,232,8.0,11.0,48,0.00,,,0.00,578.0,meteohub,2013-08-15 23:52:00,
2013-08-15 16:57:00,85.3,63.3,30.03,WSW,256,7.0,10.0,48,0.00,,,0.00,564.0,meteohub,2013-08-15 23:57:00,
2013-08-15 17:02:00,84.9,63.7,30.03,West,261,7.0,12.0,49,0.00,,,0.00,548.0,meteohub,2013-08-16 00:02:00,
2013-08-15 17:08:00,85.3,64.0,30.03,SW,236,8.0,12.0,49,0.00,,,0.00,534.0,meteohub,2013-08-16 00:08:00,
2013-08-15 17:13:00,85.1,63.9,30.03,WSW,237,6.0,12.0,49,0.00,,,0.00,520.0,meteohub,2013-08-16 00:13:00,
2013-08-15 17:18:00,84.9,63.7,30.03,SW,218,9.0,11.0,49,0.00,,,0.00,504.0,meteohub,2013-08-16 00:18:00,
2013-08-15 17:23:00,84.7,63.5,30.03,SW,222,6.0,11.0,49,0.00,,,0.00,489.0,meteohub,2013-08-16 00:23:00,
2013-08-15 17:28:00,84.4,63.7,30.03,SW,227,9.0,11.0,50,0.00,,,0.00,473.0,meteohub,2013-08-16 00:28:00,
2013-08-15 17:33:00,84.2,64.0,30.03,SW,219,8.0,12.0,51,0.00,,,0.00,455.0,meteohub,2013-08-16 00:33:00,
2013-08-15 17:38:00,84.2,63.5,30.03,SW,225,6.0,13.0,50,0.00,,,0.00,443.0,meteohub,2013-08-16 00:38:00,
2013-08-15 17:44:00,84.4,64.2,30.03,WSW,245,6.0,13.0,51,0.00,,,0.00,425.0,meteohub,2013-08-16 00:44:00,
2013-08-15 17:49:00,84.4,64.8,30.03,WSW,244,6.0,12.0,52,0.00,,,0.00,404.0,meteohub,2013-08-16 00:49:00,
2013-08-15 17:54:00,84.4,64.2,30.03,WSW,251,2.0,10.0,51,0.00,,,0.00,388.0,meteohub,2013-08-16 00:54:00,
2013-08-15 17:59:00,84.0,63.9,30.03,SW,235,6.0,10.0,51,0.00,,,0.00,374.0,meteohub,2013-08-16 00:59:00,
2013-08-15 18:04:00,84.0,64.6,30.03,SSW,211,6.0,10.0,52,0.00,,,0.00,355.0,meteohub,2013-08-16 01:04:00,
2013-08-15 18:10:00,83.5,64.6,30.03,WSW,241,6.0,10.0,53,0.00,,,0.00,339.0,meteohub,2013-08-16 01:10:00,
2013-08-15 18:15:00,83.3,64.4,30.03,SW,225,8.0,11.0,53,0.00,,,0.00,322.0,meteohub,2013-08-16 01:15:00,
2013-08-15 18:20:00,82.9,64.0,30.03,WSW,238,4.0,11.0,53,0.00,,,0.00,306.0,meteohub,2013-08-16 01:20:00,
2013-08-15 18:25:00,82.2,63.9,30.03,WSW,250,6.0,11.0,54,0.00,,,0.00,288.0,meteohub,2013-08-16 01:25:00,
2013-08-15 18:30:00,81.9,64.0,30.03,WSW,241,3.0,11.0,55,0.00,,,0.00,271.0,meteohub,2013-08-16 01:30:00,
2013-08-15 18:36:00,81.7,63.9,30.02,WSW,239,4.0,11.0,55,0.00,,,0.00,251.0,meteohub,2013-08-16 01:36:00,
2013-08-15 18:41:00,81.5,63.9,30.02,SW,215,6.0,11.0,55,0.00,,,0.00,234.0,meteohub,2013-08-16 01:41:00,
2013-08-15 18:46:00,81.3,64.0,30.02,West,259,5.0,10.0,56,0.00,,,0.00,214.0,meteohub,2013-08-16 01:46:00,
2013-08-15 18:51:00,81.1,64.0,30.02,WSW,248,5.0,10.0,56,0.00,,,0.00,195.0,meteohub,2013-08-16 01:51:00,
2013-08-15 18:56:00,81.0,63.9,30.03,West,267,3.0,10.0,56,0.00,,,0.00,174.0,meteohub,2013-08-16 01:56:00,
2013-08-15 19:01:00,80.8,64.0,30.03,West,267,6.0,8.0,57,0.00,,,0.00,156.0,meteohub,2013-08-16 02:01:00,
2013-08-15 19:06:00,79.9,63.9,30.03,WNW,283,4.0,8.0,58,0.00,,,0.00,137.0,meteohub,2013-08-16 02:06:00,
2013-08-15 19:11:00,79.3,63.7,30.03,WSW,241,4.0,8.0,59,0.00,,,0.00,118.0,meteohub,2013-08-16 02:11:00,
2013-08-15 19:16:00,78.6,63.5,30.03,WSW,253,5.0,11.0,60,0.00,,,0.00,100.0,meteohub,2013-08-16 02:16:00,
2013-08-15 19:22:00,78.1,63.1,30.03,WSW,258,4.0,11.0,60,0.00,,,0.00,84.0,meteohub,2013-08-16 02:22:00,
2013-08-15 19:27:00,77.5,63.0,30.03,WSW,248,2.0,11.0,61,0.00,,,0.00,69.0,meteohub,2013-08-16 02:27:00,
2013-08-15 19:32:00,77.0,63.0,30.03,West,260,3.0,10.0,62,0.00,,,0.00,54.0,meteohub,2013-08-16 02:32:00,
2013-08-15 19:37:00,76.5,63.0,30.03,WSW,258,3.0,10.0,63,0.00,,,0.00,39.0,meteohub,2013-08-16 02:37:00,
2013-08-15 19:43:00,75.9,62.8,30.03,SW,232,3.0,8.0,64,0.00,,,0.00,26.0,meteohub,2013-08-16 02:43:00,
2013-08-15 19:48:00,75.6,63.0,30.04,WSW,250,4.0,8.0,65,0.00,,,0.00,14.0,meteohub,2013-08-16 02:48:00,
2013-08-15 19:53:00,74.8,62.8,30.04,SW,225,5.0,9.0,66,0.00,,,0.00,5.0,meteohub,2013-08-16 02:53:00,
2013-08-15 19:58:00,74.1,62.4,30.04,West,259,3.0,9.0,67,0.00,,,0.00,0.0,meteohub,2013-08-16 02:58:00,
2013-08-15 20:03:00,73.6,62.4,30.04,WSW,241,2.0,9.0,68,0.00,,,0.00,0.0,meteohub,2013-08-16 03:03:00,
2013-08-15 20:08:00,73.0,62.2,30.04,SW,223,2.0,8.0,69,0.00,,,0.00,0.0,meteohub,2013-08-16 03:08:00,
2013-08-15 20:13:00,72.7,62.2,30.04,SW,219,3.0,8.0,70,0.00,,,0.00,0.0,meteohub,2013-08-16 03:13:00,
2013-08-15 20:18:00,72.3,62.4,30.04,SW,227,2.0,6.0,71,0.00,,,0.00,0.0,meteohub,2013-08-16 03:18:00,
2013-08-15 20:23:00,72.0,62.1,30.04,WSW,250,3.0,6.0,71,0.00,,,0.00,0.0,meteohub,2013-08-16 03:23:00,
2013-08-15 20:28:00,71.4,61.9,30.04,WSW,244,3.0,6.0,72,0.00,,,0.00,0.0,meteohub,2013-08-16 03:28:00,
2013-08-15 20:33:00,71.2,62.1,30.04,WSW,241,3.0,6.0,73,0.00,,,0.00,0.0,meteohub,2013-08-16 03:33:00,
2013-08-15 20:38:00,70.9,62.2,30.04,WSW,246,4.0,6.0,74,0.00,,,0.00,0.0,meteohub,2013-08-16 03:38:00,
2013-08-15 20:43:00,70.5,61.9,30.04,WSW,237,4.0,7.0,74,0.00,,,0.00,0.0,meteohub,2013-08-16 03:43:00,
2013-08-15 20:49:00,70.3,62.1,30.04,WSW,252,4.0,7.0,75,0.00,,,0.00,0.0,meteohub,2013-08-16 03:49:00,
2013-08-15 20:54:00,70.2,61.9,30.04,West,264,4.0,7.0,75,0.00,,,0.00,0.0,meteohub,2013-08-16 03:54:00,
2013-08-15 20:59:00,69.8,61.9,30.04,WSW,244,1.0,7.0,76,0.00,,,0.00,0.0,meteohub,2013-08-16 03:59:00,
2013-08-15 21:01:00,69.6,61.7,30.04,West,279,3.0,7.0,76,0.00,,,0.00,0.0,meteohub,2013-08-16 04:01:00,
2013-08-15 21:02:00,69.6,61.7,30.04,WNW,289,4.0,7.0,76,0.00,,,0.00,0.0,meteohub,2013-08-16 04:02:00,
2013-08-15 21:03:00,69.4,61.5,30.05,West,277,2.0,7.0,76,0.00,,,0.00,0.0,meteohub,2013-08-16 04:03:00,
2013-08-15 21:08:00,69.1,61.5,30.05,WSW,252,2.0,7.0,77,0.00,,,0.00,0.0,meteohub,2013-08-16 04:08:00,
2013-08-15 21:13:00,68.7,61.5,30.05,West,265,1.0,5.0,78,0.00,,,0.00,0.0,meteohub,2013-08-16 04:13:00,
2013-08-15 21:18:00,68.5,61.7,30.05,West,266,3.0,6.0,79,0.00,,,0.00,0.0,meteohub,2013-08-16 04:18:00,
2013-08-15 21:23:00,68.4,61.5,30.05,West,279,4.0,7.0,79,0.00,,,0.00,0.0,meteohub,2013-08-16 04:23:00,
2013-08-15 21:29:00,68.2,61.3,30.05,SSW,213,3.0,7.0,79,0.00,,,0.00,0.0,meteohub,2013-08-16 04:29:00,
2013-08-15 21:34:00,68.0,61.5,30.06,WSW,246,3.0,7.0,80,0.00,,,0.00,0.0,meteohub,2013-08-16 04:34:00,
2013-08-15 21:39:00,67.6,61.2,30.06,West,269,1.0,6.0,80,0.00,,,0.00,0.0,meteohub,2013-08-16 04:39:00,
2013-08-15 21:44:00,67.6,61.5,30.06,WSW,238,4.0,6.0,81,0.00,,,0.00,0.0,meteohub,2013-08-16 04:44:00,
2013-08-15 21:49:00,67.5,61.3,30.06,NW,321,2.0,6.0,81,0.00,,,0.00,0.0,meteohub,2013-08-16 04:49:00,
2013-08-15 21:54:00,67.5,61.3,30.06,SW,227,0.0,6.0,81,0.00,,,0.00,0.0,meteohub,2013-08-16 04:54:00,
2013-08-15 21:59:00,67.5,61.3,30.06,WSW,248,1.0,6.0,81,0.00,,,0.00,0.0,meteohub,2013-08-16 04:59:00,
2013-08-15 22:04:00,67.5,61.3,30.06,WSW,247,0.0,6.0,81,0.00,,,0.00,0.0,meteohub,2013-08-16 05:04:00,
2013-08-15 22:09:00,67.5,61.3,30.06,WSW,242,1.0,6.0,81,0.00,,,0.00,0.0,meteohub,2013-08-16 05:09:00,
2013-08-15 22:14:00,67.5,61.3,30.06,WSW,254,2.0,5.0,81,0.00,,,0.00,0.0,meteohub,2013-08-16 05:14:00,
2013-08-15 22:19:00,67.5,61.3,30.06,SW,216,3.0,7.0,81,0.00,,,0.00,0.0,meteohub,2013-08-16 05:19:00,
2013-08-15 22:24:00,67.1,61.3,30.06,SW,236,0.0,7.0,82,0.00,,,0.00,0.0,meteohub,2013-08-16 05:24:00,
2013-08-15 22:29:00,66.9,61.0,30.06,SW,236,0.0,7.0,81,0.00,,,0.00,0.0,meteohub,2013-08-16 05:29:00,
2013-08-15 22:34:00,66.9,61.0,30.06,SW,236,0.0,7.0,81,0.00,,,0.00,0.0,meteohub,2013-08-16 05:34:00,
2013-08-15 22:40:00,66.7,61.0,30.07,SW,236,1.0,5.0,82,0.00,,,0.00,0.0,meteohub,2013-08-16 05:40:00,
2013-08-15 22:45:00,66.6,61.0,30.07,WSW,254,0.0,4.0,82,0.00,,,0.00,0.0,meteohub,2013-08-16 05:45:00,
2013-08-15 22:50:00,66.4,61.0,30.07,WSW,244,1.0,4.0,83,0.00,,,0.00,0.0,meteohub,2013-08-16 05:50:00,
2013-08-15 22:55:00,66.2,60.8,30.07,WSW,244,0.0,4.0,83,0.00,,,0.00,0.0,meteohub,2013-08-16 05:55:00,
2013-08-15 23:00:00,65.8,60.8,30.07,South,188,0.0,4.0,84,0.00,,,0.00,0.0,meteohub,2013-08-16 06:00:00,
2013-08-15 23:05:00,65.7,60.6,30.07,South,189,0.0,4.0,84,0.00,,,0.00,0.0,meteohub,2013-08-16 06:05:00,
2013-08-15 23:10:00,65.7,60.6,30.07,SW,231,0.0,4.0,84,0.00,,,0.00,0.0,meteohub,2013-08-16 06:10:00,
2013-08-15 23:15:00,65.5,60.8,30.07,WSW,252,3.0,6.0,85,0.00,,,0.00,0.0,meteohub,2013-08-16 06:15:00,
2013-08-15 23:20:00,65.1,60.4,30.08,SW,224,0.0,6.0,85,0.00,,,0.00,0.0,meteohub,2013-08-16 06:20:00,
2013-08-15 23:25:00,65.1,60.8,30.08,SW,221,0.0,6.0,86,0.00,,,0.00,0.0,meteohub,2013-08-16 06:25:00,
2013-08-15 23:30:00,64.9,60.6,30.08,SW,234,4.0,5.0,86,0.00,,,0.00,0.0,meteohub,2013-08-16 06:30:00,
2013-08-15 23:35:00,64.9,61.0,30.08,WSW,240,1.0,5.0,87,0.00,,,0.00,0.0,meteohub,2013-08-16 06:35:00,
2013-08-15 23:40:00,64.8,60.8,30.07,SW,225,0.0,6.0,87,0.00,,,0.00,0.0,meteohub,2013-08-16 06:40:00,
2013-08-15 23:45:00,64.8,60.8,30.07,WSW,241,0.0,6.0,87,0.00,,,0.00,0.0,meteohub,2013-08-16 06:45:00,
2013-08-15 23:50:00,64.8,60.8,30.07,WSW,241,1.0,4.0,87,0.00,,,0.00,0.0,meteohub,2013-08-16 06:50:00,
2013-08-15 23:55:00,64.8,60.8,30.08,WSW,241,0.0,4.0,87,0.00,,,0.00,0.0,meteohub,2013-08-16 06:55:00,